createdAt,value
2022-08-01T00:04:19.076Z,100673.53
2022-08-01T00:09:24.239Z,100670.78
2022-08-01T00:14:31.987Z,100667.97
2022-08-01T00:19:34.528Z,100678.44
2022-08-01T00:24:36.201Z,100659.78
2022-08-01T00:30:11.765Z,100663.19
2022-08-01T00:34:59.583Z,100657.03
2022-08-01T00:40:01.256Z,100651.91
2022-08-01T00:45:02.931Z,100656.09
2022-08-01T00:50:05.398Z,100649.94
2022-08-01T00:55:07.324Z,100649.78
2022-08-01T01:00:09.486Z,100647.13
2022-08-01T01:05:11.738Z,100646.09
2022-08-01T01:10:18.432Z,100646.22
2022-08-01T01:15:26.267Z,100648.91
2022-08-01T01:20:32.195Z,100639.19
2022-08-01T01:26:03.016Z,100638.38
2022-08-01T01:31:04.728Z,100646.38
2022-08-01T01:36:07.591Z,100653.53
2022-08-01T01:41:15.053Z,100645.63
2022-08-01T01:46:17.980Z,100643.28
2022-08-01T01:51:19.639Z,100636.38
2022-08-01T01:56:21.756Z,100646.97
2022-08-01T02:01:58.120Z,100635.53
2022-08-01T02:06:47.696Z,100639.97
2022-08-01T02:12:08.441Z,100640.28
2022-08-01T02:17:13.450Z,100640.19
2022-08-01T02:22:18.011Z,100634.97
2022-08-01T02:27:56.711Z,100626.91
2022-08-01T02:33:04.575Z,100638.25
2022-08-01T02:38:10.017Z,100628.56
2022-08-01T02:43:11.768Z,100624.28
2022-08-01T02:48:14.185Z,100637.47
2022-08-01T02:53:17.452Z,100629.63
2022-08-01T02:58:20.186Z,100633.22
2022-08-01T03:03:21.914Z,100647.41
2022-08-01T03:08:23.606Z,100651.19
2022-08-01T03:13:25.371Z,100647.91
2022-08-01T03:18:27.188Z,100651.47
2022-08-01T03:23:37.665Z,100664.69
2022-08-01T03:28:40.188Z,100666.75
2022-08-01T03:33:41.985Z,100673.84
2022-08-01T03:38:43.665Z,100683.66
2022-08-01T03:43:51.835Z,100679.47
2022-08-01T03:48:54.063Z,100680.91
2022-08-01T03:53:55.892Z,100692.28
2022-08-01T03:58:58.086Z,100698.72
2022-08-01T04:04:00.445Z,100694.44
2022-08-01T04:09:02.196Z,100691.16
2022-08-01T04:14:04.407Z,100696.47
2022-08-01T04:19:10.959Z,100710.56
2022-08-01T04:24:17.434Z,100715.78
2022-08-01T04:29:19.934Z,100721.91
2022-08-01T04:34:22.972Z,100724.44
2022-08-01T04:39:28.551Z,100729.00
2022-08-01T04:44:32.685Z,100736.84
2022-08-01T04:49:48.636Z,100731.53
2022-08-01T04:54:51.070Z,100742.66
2022-08-01T04:59:57.692Z,100745.31
2022-08-01T05:04:59.447Z,100755.03
2022-08-01T05:10:02.411Z,100764.53
2022-08-01T05:15:11.757Z,100756.44
2022-08-01T05:20:16.354Z,100765.91
2022-08-01T05:25:20.004Z,100763.06
2022-08-01T05:30:22.181Z,100769.16
2022-08-01T05:35:23.831Z,100766.63
2022-08-01T05:40:45.531Z,100770.13
2022-08-01T05:45:47.212Z,100780.50
2022-08-01T05:50:48.876Z,100776.38
2022-08-01T05:55:50.799Z,100780.25
2022-08-01T06:00:52.484Z,100779.22
2022-08-01T06:05:54.174Z,100797.03
2022-08-01T06:10:55.891Z,100789.91
2022-08-01T06:15:57.660Z,100797.53
2022-08-01T06:20:59.350Z,100800.06
2022-08-01T06:26:01.227Z,100807.03
2022-08-01T06:31:02.917Z,100816.19
2022-08-01T06:36:04.835Z,100825.66
2022-08-01T06:41:06.551Z,100831.00
2022-08-01T06:46:08.228Z,100839.13
2022-08-01T06:51:09.928Z,100834.41
2022-08-01T06:56:11.591Z,100829.88
2022-08-01T07:01:13.369Z,100838.66
2022-08-01T07:06:15.966Z,100831.28
2022-08-01T07:11:18.006Z,100829.81
2022-08-01T07:16:19.699Z,100837.81
2022-08-01T07:21:39.966Z,100839.50
2022-08-01T07:26:54.444Z,100838.25
2022-08-01T07:31:57.409Z,100847.53
2022-08-01T07:36:59.093Z,100849.47
2022-08-01T07:42:06.378Z,100859.19
2022-08-01T07:47:09.652Z,100849.16
2022-08-01T07:52:11.346Z,100857.44
2022-08-01T07:57:13.036Z,100866.66
2022-08-01T08:02:14.799Z,100869.78
2022-08-01T08:07:16.688Z,100868.97
2022-08-01T08:12:18.338Z,100864.25
2022-08-01T08:17:20.171Z,100873.84
2022-08-01T08:22:21.845Z,100866.38
2022-08-01T08:27:23.552Z,100862.44
2022-08-01T08:32:25.290Z,100870.53
2022-08-01T08:37:26.957Z,100885.69
2022-08-01T08:42:33.261Z,100904.75
2022-08-01T08:47:34.992Z,100901.16
2022-08-01T08:52:37.052Z,100900.31
2022-08-01T08:57:40.495Z,100911.41
2022-08-01T09:02:45.824Z,100909.66
2022-08-01T09:07:47.606Z,100928.53
2022-08-01T09:13:05.361Z,100933.34
2022-08-01T09:18:07.485Z,100952.47
2022-08-01T09:23:09.821Z,100953.75
2022-08-01T09:28:11.540Z,100949.50
2022-08-01T09:33:21.433Z,100937.47
2022-08-01T09:38:24.577Z,100947.50
2022-08-01T09:43:27.589Z,100944.44
2022-08-01T09:48:29.986Z,100956.03
2022-08-01T09:53:52.122Z,100967.94
2022-08-01T09:59:01.586Z,100978.59
2022-08-01T10:04:15.429Z,100974.16
2022-08-01T10:09:27.835Z,100992.09
2022-08-01T10:14:41.742Z,100972.75
2022-08-01T10:19:50.473Z,100997.03
2022-08-01T10:24:55.798Z,100995.50
2022-08-01T10:30:07.466Z,100993.47
2022-08-01T10:35:23.999Z,100997.91
2022-08-01T10:40:41.316Z,101007.06
2022-08-01T10:45:46.159Z,101015.66
2022-08-01T10:50:53.432Z,101020.13
2022-08-01T10:55:59.252Z,101035.13
2022-08-01T11:01:25.589Z,101027.88
2022-08-01T11:06:33.441Z,101016.47
2022-08-01T11:11:37.531Z,101016.66
2022-08-01T11:16:40.804Z,101015.38
2022-08-01T11:21:59.511Z,101017.78
2022-08-01T11:27:23.553Z,101014.38
2022-08-01T11:32:26.430Z,101014.88
2022-08-01T11:37:30.567Z,101022.81
2022-08-01T11:42:32.640Z,101030.75
2022-08-01T11:47:50.248Z,101026.22
2022-08-01T11:53:04.725Z,101031.16
2022-08-01T11:58:07.350Z,101032.25
2022-08-01T12:03:33.094Z,101032.78
2022-08-01T12:08:37.600Z,101024.63
2022-08-01T12:13:42.945Z,101032.56
2022-08-01T12:18:45.081Z,101033.34
2022-08-01T12:23:47.237Z,101025.41
2022-08-01T12:28:48.936Z,101022.72
2022-08-01T12:33:50.667Z,101032.13
2022-08-01T12:38:57.501Z,101029.59
2022-08-01T12:43:59.191Z,101031.09
2022-08-01T12:49:00.956Z,101016.69
2022-08-01T12:54:02.869Z,101017.13
2022-08-01T12:59:21.297Z,101022.25
2022-08-01T13:04:23.572Z,101014.94
2022-08-01T13:09:25.298Z,101020.78
2022-08-01T13:14:30.085Z,101018.44
2022-08-01T13:19:48.819Z,101020.13
2022-08-01T13:24:50.661Z,101015.31
2022-08-01T13:29:53.921Z,101024.16
2022-08-01T13:35:05.166Z,101025.34
2022-08-01T13:40:08.045Z,101019.97
2022-08-01T13:45:14.696Z,101022.63
2022-08-01T13:50:16.897Z,101023.63
2022-08-01T13:55:18.602Z,101025.72
2022-08-01T14:00:20.377Z,101025.06
2022-08-01T14:05:22.028Z,101026.03
2022-08-01T14:10:24.945Z,101026.25
2022-08-01T14:15:37.808Z,101033.56
2022-08-01T14:20:41.282Z,101032.31
2022-08-01T14:26:03.262Z,101042.69
2022-08-01T14:31:06.998Z,101023.91
2022-08-01T14:36:30.673Z,101032.97
2022-08-01T14:41:30.838Z,101024.78
2022-08-01T14:46:34.086Z,101027.69
2022-08-01T14:51:37.956Z,101032.38
2022-08-01T14:56:39.651Z,101047.44
2022-08-01T15:01:41.604Z,101038.19
2022-08-01T15:06:43.345Z,101046.84
2022-08-01T15:11:45.009Z,101058.06
2022-08-01T15:16:46.744Z,101043.06
2022-08-01T15:21:48.827Z,101043.09
2022-08-01T15:26:50.517Z,101044.19
2022-08-01T15:31:53.274Z,101031.47
2022-08-01T15:36:54.975Z,101048.97
2022-08-01T15:41:59.206Z,101058.13
2022-08-01T15:47:01.456Z,101067.53
2022-08-01T15:52:06.810Z,101064.81
2022-08-01T15:57:11.244Z,101056.72
2022-08-01T16:02:14.516Z,101061.09
2022-08-01T16:07:16.300Z,101060.47
2022-08-01T16:12:18.003Z,101067.94
2022-08-01T16:17:19.694Z,101066.38
2022-08-01T16:22:21.393Z,101075.41
2022-08-01T16:27:27.058Z,101071.22
2022-08-01T16:32:34.238Z,101069.78
2022-08-01T16:37:49.402Z,101066.81
2022-08-01T16:42:51.081Z,101072.19
2022-08-01T16:47:52.939Z,101067.72
2022-08-01T16:52:55.059Z,101062.97
2022-08-01T16:57:57.752Z,101061.53
2022-08-01T17:02:59.468Z,101067.03
2022-08-01T17:08:01.165Z,101065.38
2022-08-01T17:13:02.977Z,101071.16
2022-08-01T17:18:05.083Z,101063.63
2022-08-01T17:23:06.916Z,101066.13
2022-08-01T17:28:10.134Z,101073.16
2022-08-01T17:33:11.791Z,101079.38
2022-08-01T17:38:13.450Z,101059.72
2022-08-01T17:43:15.168Z,101060.22
2022-08-01T17:48:17.420Z,101062.13
2022-08-01T17:53:20.795Z,101064.28
2022-08-01T17:58:33.051Z,101068.22
2022-08-01T18:03:44.978Z,101065.88
2022-08-01T18:08:47.106Z,101068.91
2022-08-01T18:13:49.465Z,101075.34
2022-08-01T18:18:51.213Z,101070.97
2022-08-01T18:23:52.965Z,101072.47
2022-08-01T18:28:54.660Z,101074.28
2022-08-01T18:33:59.674Z,101087.63
2022-08-01T18:39:04.462Z,101088.59
2022-08-01T18:44:08.364Z,101092.44
2022-08-01T18:49:11.415Z,101094.47
2022-08-01T18:54:14.100Z,101102.72
2022-08-01T18:59:15.752Z,101105.72
2022-08-01T19:04:17.442Z,101111.19
2022-08-01T19:09:20.784Z,101109.84
2022-08-01T19:14:22.768Z,101121.78
2022-08-01T19:19:28.134Z,101120.56
2022-08-01T19:24:30.041Z,101139.50
2022-08-01T19:29:35.644Z,101142.50
2022-08-01T19:35:08.466Z,101153.59
2022-08-01T19:40:11.099Z,101155.72
2022-08-01T19:45:29.595Z,101163.13
2022-08-01T19:50:31.567Z,101171.41
2022-08-01T19:55:39.204Z,101171.59
2022-08-01T20:00:42.641Z,101176.38
2022-08-01T20:05:44.377Z,101192.53
2022-08-01T20:10:46.704Z,101193.78
2022-08-01T20:15:48.390Z,101203.78
2022-08-01T20:20:51.564Z,101207.63
2022-08-01T20:25:58.253Z,101204.38
2022-08-01T20:31:05.450Z,101217.75
2022-08-01T20:36:11.987Z,101222.38
2022-08-01T20:41:27.850Z,101226.97
2022-08-01T20:46:29.749Z,101228.84
2022-08-01T20:51:31.553Z,101232.56
2022-08-01T20:56:50.816Z,101235.31
2022-08-01T21:02:10.887Z,101237.19
2022-08-01T21:07:28.437Z,101240.84
2022-08-01T21:12:49.404Z,101250.75
2022-08-01T21:17:58.205Z,101257.16
2022-08-01T21:23:05.189Z,101261.72
2022-08-01T21:28:06.904Z,101266.19
2022-08-01T21:33:13.332Z,101277.72
2022-08-01T21:38:15.941Z,101287.47
2022-08-01T21:43:17.934Z,101279.63
2022-08-01T21:48:25.818Z,101273.50
2022-08-01T21:53:48.797Z,101287.63
2022-08-01T21:59:01.111Z,101281.44
2022-08-01T22:04:06.320Z,101293.75
2022-08-01T22:09:08.053Z,101299.03
2022-08-01T22:14:12.298Z,101290.31
2022-08-01T22:19:29.574Z,101285.97
2022-08-01T22:24:37.177Z,101272.84
2022-08-01T22:29:38.836Z,101275.53
2022-08-01T22:34:40.575Z,101272.00
2022-08-01T22:39:42.251Z,101275.59
2022-08-01T22:45:16.260Z,101266.91
2022-08-01T22:50:34.426Z,101259.94
2022-08-01T22:55:58.310Z,101259.13
2022-08-01T23:01:01.407Z,101260.09
2022-08-01T23:06:03.977Z,101253.97
2022-08-01T23:11:06.306Z,101264.56
2022-08-01T23:16:08.178Z,101269.00
2022-08-01T23:21:09.895Z,101264.66
2022-08-01T23:26:11.583Z,101266.47
2022-08-01T23:31:17.279Z,101263.84
2022-08-01T23:36:18.926Z,101269.97
2022-08-01T23:41:21.760Z,101272.69
2022-08-01T23:46:23.427Z,101260.44
2022-08-01T23:51:25.183Z,101268.34
2022-08-01T23:56:26.959Z,101263.16
